Time;durP1;ratioP1;P1;durP2;ratioP2;P2;SDS_P1;SDS_P2;PMS_P1;PMS_P2;Temp;Humidity;BMP_temperature;BMP_pressure;BME280_temperature;BME280_humidity;BME280_pressure;Samples;Min_cycle;Max_cycle;Signal;HPM_P1;HPM_P2
2023/02/09 00:03:44;;;;;;;;;;;;;;;-0.28;66.82;103134.81;10316591;28;20339;-68
2023/02/09 00:08:46;;;;;;;;;;;;;;;-0.34;68.78;103121.78;10314308;28;19961;-68
2023/02/09 00:13:48;;;;;;;;;;;;;;;-0.49;67.26;103120.53;10332174;28;19921;-69
2023/02/09 00:18:51;;;;;;;;;;;;;;;-0.65;69.28;103128.72;10332505;28;19926;-68
2023/02/09 00:23:53;;;;;;;;;;;;;;;-0.57;68.04;103125.50;10334129;28;19921;-68
2023/02/09 00:28:55;;;;;;;;;;;;;;;-0.47;68.06;103130.88;10328319;28;19921;-68
2023/02/09 00:33:57;;;;;;;;;;;;;;;-0.61;68.43;103131.41;10332892;28;19976;-69
2023/02/09 00:39:00;;;;;;;;;;;;;;;-0.54;68.59;103132.44;10315889;28;19925;-69
2023/02/09 00:44:02;;;;;;;;;;;;;;;-0.54;67.84;103131.56;10316484;28;19922;-69
2023/02/09 00:49:04;;;;;;;;;;;;;;;-0.68;69.90;103132.06;10330695;28;19925;-69
2023/02/09 00:54:06;;;;;;;;;;;;;;;-0.86;69.00;103132.44;10332939;28;20340;-69
2023/02/09 00:59:09;;;;;;;;;;;;;;;-0.77;69.57;103126.69;10334845;28;20365;-69
2023/02/09 01:04:11;;;;;;;;;;;;;;;-0.83;71.22;103122.22;10322752;28;19932;-69
2023/02/09 01:09:13;;;;;;;;;;;;;;;-1.07;72.25;103142.16;10321981;28;19922;-69
2023/02/09 01:14:16;;;;;;;;;;;;;;;-1.12;72.67;103144.56;10338080;28;19945;-69
2023/02/09 01:19:18;;;;;;;;;;;;;;;-0.93;72.06;103133.97;10340158;28;19921;-69
2023/02/09 01:24:20;;;;;;;;;;;;;;;-1.16;71.92;103128.19;10322644;28;19929;-69
2023/02/09 01:29:22;;;;;;;;;;;;;;;-1.33;72.77;103126.81;10320933;28;19926;-69
2023/02/09 01:34:25;;;;;;;;;;;;;;;-1.18;73.18;103126.41;10336582;28;19922;-69
2023/02/09 01:39:27;;;;;;;;;;;;;;;-1.26;73.13;103125.28;10322134;28;19976;-69
2023/02/09 01:44:29;;;;;;;;;;;;;;;-1.26;71.82;103123.63;10337500;28;19922;-68
2023/02/09 01:49:31;;;;;;;;;;;;;;;-1.12;71.71;103122.28;10338267;28;20380;-68
2023/02/09 01:54:38;;;;;;;;;;;;;;;-1.29;71.75;103120.97;10337676;28;19921;-69
2023/02/09 01:59:41;;;;;;;;;;;;;;;-1.12;71.78;103117.16;10319296;28;19922;-68
2023/02/09 02:04:43;;;;;;;;;;;;;;;-1.27;71.04;103123.56;10318753;28;19922;-69
2023/02/09 02:09:45;;;;;;;;;;;;;;;-1.47;72.05;103117.84;10320195;28;19922;-68
2023/02/09 02:14:47;;;;;;;;;;;;;;;-1.47;72.63;103105.84;10337950;28;19973;-68
2023/02/09 02:20:08;;;;;;;;;;;;;;;-1.52;73.03;103098.00;10335559;28;19921;-68
2023/02/09 02:25:29;;;;;;;;;;;;;;;-1.26;70.69;103090.19;10337026;28;19929;-68
2023/02/09 02:30:50;;;;;;;;;;;;;;;-1.38;72.69;103084.69;10332760;28;19926;-69
2023/02/09 02:35:52;;;;;;;;;;;;;;;-1.44;72.44;103093.09;10319258;28;19922;-68
2023/02/09 02:40:57;;;;;;;;;;;;;;;-1.42;73.13;103094.00;10335246;28;19928;-68
2023/02/09 02:45:59;;;;;;;;;;;;;;;-1.37;71.88;103095.00;10318220;28;19921;-69
2023/02/09 02:51:05;;;;;;;;;;;;;;;-1.64;72.24;103082.25;10336561;28;19926;-69
2023/02/09 02:56:12;;;;;;;;;;;;;;;-1.51;74.23;103065.50;10319094;28;19921;-69
2023/02/09 03:01:15;;;;;;;;;;;;;;;-1.51;73.92;103066.34;10295427;28;19954;-68
2023/02/09 03:06:17;;;;;;;;;;;;;;;-1.36;73.13;103058.22;10317144;28;19926;-68
2023/02/09 03:11:21;;;;;;;;;;;;;;;-1.34;71.24;103061.69;10318033;28;19972;-68
2023/02/09 03:16:28;;;;;;;;;;;;;;;-1.39;72.62;103050.41;10335690;28;19921;-68
2023/02/09 03:21:33;;;;;;;;;;;;;;;-1.64;74.16;103055.69;10316095;28;19921;-68
2023/02/09 03:26:38;;;;;;;;;;;;;;;-1.63;73.81;103052.28;10335231;28;19968;-68
2023/02/09 03:31:41;;;;;;;;;;;;;;;-1.83;73.19;103059.38;10316439;28;19925;-68
2023/02/09 03:36:45;;;;;;;;;;;;;;;-1.64;72.72;103064.25;10315607;28;19976;-68
2023/02/09 03:41:47;;;;;;;;;;;;;;;-1.49;71.92;103053.56;10300066;28;20420;-68
2023/02/09 03:46:50;;;;;;;;;;;;;;;-1.75;75.03;103052.78;10334796;28;19921;-68
2023/02/09 03:51:52;;;;;;;;;;;;;;;-1.73;72.38;103051.13;10333476;28;19925;-68
2023/02/09 03:56:54;;;;;;;;;;;;;;;-1.61;73.70;103041.22;10332793;28;19929;-68
2023/02/09 04:01:57;;;;;;;;;;;;;;;-1.64;73.22;103045.41;10312731;28;19925;-68
2023/02/09 04:06:59;;;;;;;;;;;;;;;-1.71;74.16;103034.09;10332569;28;20365;-68
2023/02/09 04:12:02;;;;;;;;;;;;;;;-1.66;73.91;103023.91;10331080;23;19925;-63
2023/02/09 04:17:04;;;;;;;;;;;;;;;-1.50;71.56;103015.84;10344932;28;19968;-63
2023/02/09 04:22:07;;;;;;;;;;;;;;;-1.36;70.21;103004.25;10356874;28;19928;-63
2023/02/09 04:27:09;;;;;;;;;;;;;;;-1.22;70.12;102998.63;10372825;28;20372;-63
2023/02/09 04:32:11;;;;;;;;;;;;;;;-1.44;70.46;103002.31;10377008;28;19922;-63
2023/02/09 04:37:13;;;;;;;;;;;;;;;-1.27;70.34;103013.06;10378438;28;19964;-63
2023/02/09 04:42:16;;;;;;;;;;;;;;;-1.27;69.94;103007.91;10364815;28;19921;-63
2023/02/09 04:47:18;;;;;;;;;;;;;;;-1.45;71.12;102995.41;10381300;28;19925;-63
2023/02/09 04:52:20;;;;;;;;;;;;;;;-1.52;71.72;102994.38;10380514;28;19921;-63
2023/02/09 05:02:43;;;;;;;;;;;;;;;-1.43;71.27;103004.91;10366158;28;20387;-63
2023/02/09 05:07:45;;;;;;;;;;;;;;;-1.26;70.60;102999.34;10381199;28;19926;-63
2023/02/09 05:12:47;;;;;;;;;;;;;;;-1.39;70.47;103003.31;10376796;28;19928;-63
2023/02/09 05:17:50;;;;;;;;;;;;;;;-1.15;69.68;103011.66;10378408;28;19921;-63
2023/02/09 05:22:52;;;;;;;;;;;;;;;-1.41;70.63;102998.13;10379536;28;19928;-63
2023/02/09 05:27:54;;;;;;;;;;;;;;;-1.29;69.37;102997.59;10378750;28;19929;-63
2023/02/09 05:32:57;;;;;;;;;;;;;;;-1.08;69.86;103011.84;10380372;28;19953;-63
2023/02/09 05:37:59;;;;;;;;;;;;;;;-1.33;72.29;103024.91;10361282;28;19925;-63
2023/02/09 05:43:02;;;;;;;;;;;;;;;-1.47;71.08;103035.63;10378172;28;19921;-63
2023/02/09 05:48:04;;;;;;;;;;;;;;;-1.34;71.73;103037.72;10378225;28;19922;-63
2023/02/09 05:53:07;;;;;;;;;;;;;;;-1.42;72.66;103044.31;10378470;28;19921;-63
2023/02/09 05:58:10;;;;;;;;;;;;;;;-1.57;72.81;103045.63;10379268;28;19928;-63
2023/02/09 06:03:12;;;;;;;;;;;;;;;-1.46;72.59;103042.47;10376296;28;19921;-63
2023/02/09 06:08:14;;;;;;;;;;;;;;;-1.39;71.51;103039.28;10377907;28;19921;-63
2023/02/09 06:13:17;;;;;;;;;;;;;;;-1.26;71.15;103031.09;10376748;28;19968;-63
2023/02/09 06:18:19;;;;;;;;;;;;;;;-1.55;71.84;103020.84;10356580;28;19937;-63
2023/02/09 06:23:21;;;;;;;;;;;;;;;-1.61;72.42;103024.94;10378177;28;19921;-63
2023/02/09 06:28:23;;;;;;;;;;;;;;;-1.60;73.04;103031.81;10378080;28;19925;-63
2023/02/09 06:33:26;;;;;;;;;;;;;;;-1.64;72.20;103036.00;10374996;28;20327;-63
2023/02/09 06:38:34;;;;;;;;;;;;;;;-1.46;72.52;103052.75;10376240;28;20373;-63
2023/02/09 06:43:37;;;;;;;;;;;;;;;-1.63;72.22;103044.56;10376980;28;19921;-63
2023/02/09 06:48:39;;;;;;;;;;;;;;;-1.53;73.32;103060.31;10358565;28;20041;-63
2023/02/09 06:53:41;;;;;;;;;;;;;;;-1.73;73.34;103071.66;10374330;28;19921;-62
2023/02/09 06:58:43;;;;;;;;;;;;;;;-1.61;73.96;103063.50;10359627;28;19925;-63
2023/02/09 07:03:46;;;;;;;;;;;;;;;-1.71;75.60;103076.03;10358548;28;19925;-62
2023/02/09 07:08:48;;;;;;;;;;;;;;;-1.67;74.80;103081.28;10375991;28;20415;-62
2023/02/09 07:13:50;;;;;;;;;;;;;;;-1.70;74.44;103093.22;10376192;28;19921;-62
2023/02/09 07:18:53;;;;;;;;;;;;;;;-1.71;75.23;103082.88;10374012;28;20273;-62
2023/02/09 07:23:55;;;;;;;;;;;;;;;-1.65;73.84;103090.75;10375562;28;20319;-63
2023/02/09 07:28:57;;;;;;;;;;;;;;;-1.36;74.27;103090.75;10371228;28;20426;-63
2023/02/09 07:34:00;;;;;;;;;;;;;;;-1.07;73.46;103089.00;10372235;28;19944;-62
2023/02/09 07:39:02;;;;;;;;;;;;;;;-1.03;71.73;103095.09;10375124;28;20380;-63
2023/02/09 07:44:04;;;;;;;;;;;;;;;-0.88;71.07;103092.94;10371371;28;19926;-62
2023/02/09 07:49:06;;;;;;;;;;;;;;;-0.63;70.74;103089.31;10373730;28;19921;-62
2023/02/09 07:54:11;;;;;;;;;;;;;;;-0.62;70.10;103100.50;10371547;28;19922;-63
2023/02/09 07:59:13;;;;;;;;;;;;;;;-0.39;70.48;103099.38;10373590;28;19925;-62
2023/02/09 08:04:15;;;;;;;;;;;;;;;-0.43;69.25;103105.28;10373618;28;20356;-62
2023/02/09 08:09:18;;;;;;;;;;;;;;;-0.39;68.92;103096.81;10375881;28;20380;-63
2023/02/09 08:14:27;;;;;;;;;;;;;;;-0.12;68.04;103085.41;10382671;28;20512;-65
2023/02/09 08:19:30;;;;;;;;;;;;;;;-0.16;67.09;103075.03;10365809;28;19928;-64
2023/02/09 08:24:32;;;;;;;;;;;;;;;0.14;68.63;103080.03;10366952;28;19922;-64
2023/02/09 08:29:34;;;;;;;;;;;;;;;0.48;66.98;103088.50;10351968;28;19921;-63
2023/02/09 08:34:36;;;;;;;;;;;;;;;1.09;66.81;103073.34;10382539;28;19925;-63
2023/02/09 08:39:39;;;;;;;;;;;;;;;0.88;65.46;103066.97;10382423;28;19921;-62
2023/02/09 08:44:41;;;;;;;;;;;;;;;1.41;66.04;103044.66;10377430;28;19928;-62
2023/02/09 08:49:43;;;;;;;;;;;;;;;1.35;64.41;103054.91;10380373;28;19932;-62
2023/02/09 08:54:45;;;;;;;;;;;;;;;1.51;63.78;103056.88;10377065;28;20380;-62
2023/02/09 08:59:48;;;;;;;;;;;;;;;1.69;63.31;103046.00;10381637;28;19921;-62
2023/02/09 09:04:50;;;;;;;;;;;;;;;2.79;63.85;103058.66;10359380;28;20028;-62
2023/02/09 09:09:52;;;;;;;;;;;;;;;3.04;62.25;103062.38;10356344;28;20380;-64
2023/02/09 09:14:54;;;;;;;;;;;;;;;3.76;62.07;103059.56;10346207;28;20395;-63
2023/02/09 09:19:57;;;;;;;;;;;;;;;3.66;60.45;103042.22;10339255;28;19991;-62
2023/02/09 09:24:59;;;;;;;;;;;;;;;3.92;59.61;103068.34;10373830;28;19927;-62
2023/02/09 09:30:02;;;;;;;;;;;;;;;4.21;61.53;103059.88;10339405;28;19922;-62
2023/02/09 09:35:05;;;;;;;;;;;;;;;4.01;58.83;103050.22;10361671;28;19922;-63
2023/02/09 09:40:07;;;;;;;;;;;;;;;3.66;58.68;103070.72;10374317;28;19925;-63
2023/02/09 09:45:11;;;;;;;;;;;;;;;5.53;57.68;103039.44;10344458;28;19929;-62
2023/02/09 09:50:16;;;;;;;;;;;;;;;5.35;58.58;103053.28;10338810;28;19926;-63
2023/02/09 09:55:23;;;;;;;;;;;;;;;6.81;54.79;103069.47;10356561;28;19921;-63
2023/02/09 10:00:38;;;;;;;;;;;;;;;6.51;54.21;103086.94;10352830;28;19922;-63
2023/02/09 10:05:41;;;;;;;;;;;;;;;6.11;55.92;103079.25;10338685;28;19922;-63
2023/02/09 10:10:45;;;;;;;;;;;;;;;4.26;56.86;103108.28;10337433;28;19925;-63
2023/02/09 10:15:52;;;;;;;;;;;;;;;5.09;58.49;103093.94;10351440;28;19922;-63
2023/02/09 10:20:56;;;;;;;;;;;;;;;6.05;56.86;103095.75;10351357;28;20365;-63
2023/02/09 10:26:02;;;;;;;;;;;;;;;7.18;52.30;103085.72;10351474;28;19921;-63
2023/02/09 10:31:16;;;;;;;;;;;;;;;7.11;55.34;103080.56;10336890;28;19921;-63
2023/02/09 10:36:21;;;;;;;;;;;;;;;7.54;54.04;103095.91;10352362;28;19925;-63
2023/02/09 10:41:23;;;;;;;;;;;;;;;7.06;52.93;103088.41;10337093;28;19934;-63
2023/02/09 10:46:26;;;;;;;;;;;;;;;8.07;51.28;103091.06;10336391;28;19976;-63
2023/02/09 10:51:28;;;;;;;;;;;;;;;7.29;53.55;103090.00;10336061;28;20013;-63
2023/02/09 10:56:35;;;;;;;;;;;;;;;6.96;53.98;103076.31;10336620;28;19922;-63
2023/02/09 11:01:40;;;;;;;;;;;;;;;10.11;52.68;103083.81;10350706;28;19921;-64
2023/02/09 11:06:47;;;;;;;;;;;;;;;10.38;48.08;103088.53;10334987;28;20020;-64
2023/02/09 11:11:49;;;;;;;;;;;;;;;9.81;52.25;103093.94;10336097;28;19929;-64
2023/02/09 11:16:51;;;;;;;;;;;;;;;8.68;49.20;103098.25;10335086;28;20285;-64
2023/02/09 11:21:56;;;;;;;;;;;;;;;9.98;51.90;103097.09;10335073;28;19980;-63
2023/02/09 11:27:00;;;;;;;;;;;;;;;8.64;49.24;103108.72;10349708;28;19940;-65
2023/02/09 11:32:07;;;;;;;;;;;;;;;9.27;49.81;103105.28;10328951;28;19921;-64
2023/02/09 11:37:29;;;;;;;;;;;;;;;9.88;48.31;103097.31;10356084;28;20332;-64
2023/02/09 11:42:44;;;;;;;;;;;;;;;8.37;52.11;103111.63;10316388;28;20288;-64
2023/02/09 11:47:47;;;;;;;;;;;;;;;8.58;51.24;103116.66;10366867;28;19922;-64
2023/02/09 11:52:50;;;;;;;;;;;;;;;6.82;54.21;103110.22;10372534;28;19922;-64
2023/02/09 11:58:16;;;;;;;;;;;;;;;7.39;53.20;103110.75;10341240;28;19968;-64
2023/02/09 12:03:18;;;;;;;;;;;;;;;6.24;54.40;103109.56;10351608;28;20329;-64
2023/02/09 12:08:30;;;;;;;;;;;;;;;8.82;52.06;103098.06;10333641;28;19929;-64
2023/02/09 12:13:51;;;;;;;;;;;;;;;8.43;54.10;103088.97;10314615;28;19988;-64
2023/02/09 12:18:53;;;;;;;;;;;;;;;7.95;55.28;103097.25;10334395;28;19926;-64
2023/02/09 12:23:55;;;;;;;;;;;;;;;7.57;55.82;103082.84;10332474;28;19984;-64
2023/02/09 12:29:16;;;;;;;;;;;;;;;7.48;54.82;103075.09;10323138;28;20297;-64
2023/02/09 12:34:21;;;;;;;;;;;;;;;6.56;55.73;103085.19;10331876;28;19922;-64
2023/02/09 12:39:24;;;;;;;;;;;;;;;7.20;56.85;103089.19;10361592;28;19925;-64
2023/02/09 12:44:26;;;;;;;;;;;;;;;6.82;57.29;103081.59;10332051;28;19921;-64
2023/02/09 12:49:28;;;;;;;;;;;;;;;7.32;56.85;103074.34;10333720;28;19922;-64
2023/02/09 12:54:47;;;;;;;;;;;;;;;8.04;54.61;103081.53;10338509;28;19929;-64
2023/02/09 12:59:57;;;;;;;;;;;;;;;8.36;55.62;103072.50;10369093;28;19925;-64
2023/02/09 13:05:07;;;;;;;;;;;;;;;7.98;57.12;103068.53;10362073;28;19926;-64
2023/02/09 13:10:28;;;;;;;;;;;;;;;7.57;55.75;103069.81;10319114;28;19922;-64
2023/02/09 13:15:34;;;;;;;;;;;;;;;7.61;56.72;103054.09;10336374;28;20013;-64
2023/02/09 13:20:45;;;;;;;;;;;;;;;7.42;57.59;103045.59;10367099;28;19922;-64
2023/02/09 13:25:47;;;;;;;;;;;;;;;8.17;57.02;103032.72;10338209;28;19921;-64
2023/02/09 13:30:49;;;;;;;;;;;;;;;9.47;55.17;103031.75;10339799;28;20034;-65
2023/02/09 13:35:52;;;;;;;;;;;;;;;8.42;56.62;103037.63;10339660;28;19970;-64
2023/02/09 13:40:54;;;;;;;;;;;;;;;8.64;54.96;103036.50;10339462;28;19932;-65
2023/02/09 13:45:57;;;;;;;;;;;;;;;8.22;56.22;103043.06;10322271;28;19922;-64
2023/02/09 13:51:00;;;;;;;;;;;;;;;7.34;59.55;103057.81;10337154;28;19929;-64
2023/02/09 13:56:03;;;;;;;;;;;;;;;6.41;61.62;103062.69;10368256;28;19921;-64
2023/02/09 14:01:11;;;;;;;;;;;;;;;6.50;61.67;103060.03;10374534;28;19921;-64
2023/02/09 14:06:16;;;;;;;;;;;;;;;6.07;63.25;103075.78;10362235;28;20292;-64
2023/02/09 14:11:22;;;;;;;;;;;;;;;6.43;63.61;103076.56;10373457;28;19922;-64
2023/02/09 14:16:37;;;;;;;;;;;;;;;6.71;62.76;103071.25;10319853;28;19929;-64
2023/02/09 14:21:53;;;;;;;;;;;;;;;6.32;65.29;103076.59;10336863;28;19925;-64
2023/02/09 14:27:03;;;;;;;;;;;;;;;6.07;65.97;103083.59;10368755;28;19928;-64
2023/02/09 14:32:24;;;;;;;;;;;;;;;6.17;65.74;103083.56;10334890;28;19993;-64
2023/02/09 14:37:34;;;;;;;;;;;;;;;6.69;64.71;103075.56;10344375;28;20300;-64
2023/02/09 14:42:44;;;;;;;;;;;;;;;6.46;65.21;103078.28;10370992;28;19922;-64
2023/02/09 14:47:46;;;;;;;;;;;;;;;6.38;65.30;103078.31;10357790;28;19944;-64
2023/02/09 14:52:50;;;;;;;;;;;;;;;6.27;67.45;103083.56;10344827;28;19921;-64
2023/02/09 14:57:53;;;;;;;;;;;;;;;5.92;67.11;103070.59;10362626;28;20332;-64
2023/02/09 15:02:55;;;;;;;;;;;;;;;5.71;67.94;103085.31;10368943;28;20372;-64
2023/02/09 15:08:07;;;;;;;;;;;;;;;5.79;68.03;103074.94;10374925;28;19972;-64
2023/02/09 15:13:10;;;;;;;;;;;;;;;5.71;68.89;103085.31;10355778;28;19929;-64
2023/02/09 15:18:23;;;;;;;;;;;;;;;5.89;68.38;103083.59;10351125;28;19922;-64
2023/02/09 15:23:25;;;;;;;;;;;;;;;5.33;69.82;103101.78;10346966;28;19979;-64
2023/02/09 15:28:28;;;;;;;;;;;;;;;5.33;71.19;103100.88;10369709;28;19921;-64
2023/02/09 15:33:31;;;;;;;;;;;;;;;5.38;71.08;103101.78;10372055;28;19967;-64
2023/02/09 15:38:33;;;;;;;;;;;;;;;5.58;70.58;103112.19;10371160;28;19922;-64
2023/02/09 15:48:56;;;;;;;;;;;;;;;5.44;71.54;103119.09;10363740;28;20274;-64
2023/02/09 15:53:59;;;;;;;;;;;;;;;5.29;71.66;103126.00;10371378;28;19928;-64
2023/02/09 15:59:04;;;;;;;;;;;;;;;5.33;71.50;103135.56;10242911;29;20263;-64
2023/02/09 16:04:06;;;;;;;;;;;;;;;5.50;70.74;103134.72;10231734;29;19922;-64
2023/02/09 16:09:16;;;;;;;;;;;;;;;5.43;71.56;103138.16;10245984;29;20436;-64
2023/02/09 16:14:20;;;;;;;;;;;;;;;5.18;71.85;103148.50;10230861;29;19923;-64
2023/02/09 16:19:22;;;;;;;;;;;;;;;5.09;73.00;103151.91;10243636;29;20017;-64
2023/02/09 16:24:31;;;;;;;;;;;;;;;5.14;73.57;103159.72;10212249;29;19934;-64
2023/02/09 16:29:33;;;;;;;;;;;;;;;5.06;72.75;103154.53;10351310;23;19924;-69
2023/02/09 16:34:35;;;;;;;;;;;;;;;5.15;73.46;103174.47;10423268;28;19921;-69
2023/02/09 16:39:37;;;;;;;;;;;;;;;4.90;73.77;103176.94;10421595;28;19928;-69
2023/02/09 16:44:40;;;;;;;;;;;;;;;5.02;74.00;103183.91;10379756;28;20395;-69
2023/02/09 16:49:43;;;;;;;;;;;;;;;5.14;73.67;103183.09;10402619;28;20364;-69
2023/02/09 16:54:56;;;;;;;;;;;;;;;4.84;74.45;103189.88;10369327;28;19925;-69
2023/02/09 16:59:58;;;;;;;;;;;;;;;4.71;75.96;103201.06;10397065;28;19921;-69
2023/02/09 17:05:02;;;;;;;;;;;;;;;4.76;76.41;103213.22;10410657;28;20414;-69
2023/02/09 17:10:12;;;;;;;;;;;;;;;4.55;77.86;103216.53;10388081;28;19932;-69
2023/02/09 17:15:14;;;;;;;;;;;;;;;4.65;78.20;103213.16;10387756;28;19925;-69
2023/02/09 17:20:33;;;;;;;;;;;;;;;4.63;78.53;103227.84;10396392;28;19957;-69
2023/02/09 17:25:37;;;;;;;;;;;;;;;4.62;78.98;103236.50;10404007;28;19921;-69
2023/02/09 17:30:39;;;;;;;;;;;;;;;4.57;79.53;103238.22;10449421;28;19931;-69
2023/02/09 17:35:42;;;;;;;;;;;;;;;4.72;78.90;103242.59;10448637;28;19921;-69
2023/02/09 17:41:04;;;;;;;;;;;;;;;4.56;79.50;103243.38;10460214;28;20019;-69
2023/02/09 17:46:09;;;;;;;;;;;;;;;4.47;80.10;103247.66;10443194;28;19974;-69
2023/02/09 17:51:21;;;;;;;;;;;;;;;4.58;80.59;103237.31;10460115;28;19920;-69
2023/02/09 17:56:23;;;;;;;;;;;;;;;4.50;81.03;103243.31;10436394;28;19920;-69
2023/02/09 18:01:26;;;;;;;;;;;;;;;4.36;82.09;103246.69;10493497;28;19946;-68
2023/02/09 18:06:38;;;;;;;;;;;;;;;4.44;82.42;103250.22;10443260;28;19921;-68
2023/02/09 18:11:44;;;;;;;;;;;;;;;4.45;82.43;103259.75;10438908;28;20376;-68
2023/02/09 18:16:46;;;;;;;;;;;;;;;4.50;82.75;103261.50;10451934;28;20007;-68
2023/02/09 18:21:49;;;;;;;;;;;;;;;4.63;83.03;103269.38;10446317;28;19927;-69
2023/02/09 18:26:52;;;;;;;;;;;;;;;4.71;82.09;103268.53;10442193;28;20417;-69
2023/02/09 18:31:58;;;;;;;;;;;;;;;4.78;82.39;103276.38;10401477;28;19931;-69
2023/02/09 18:37:00;;;;;;;;;;;;;;;4.61;83.64;103276.28;10401394;28;19928;-69
2023/02/09 18:42:02;;;;;;;;;;;;;;;4.49;84.20;103273.59;10418764;28;19967;-69
2023/02/09 18:47:05;;;;;;;;;;;;;;;4.67;84.03;103291.00;10417055;28;19925;-69
2023/02/09 18:52:09;;;;;;;;;;;;;;;4.61;84.99;103288.41;10417756;28;19925;-68
2023/02/09 18:57:12;;;;;;;;;;;;;;;4.81;84.17;103294.59;10417236;28;20299;-69
2023/02/09 19:02:14;;;;;;;;;;;;;;;4.69;84.67;103294.50;10398962;28;19921;-69
2023/02/09 19:07:16;;;;;;;;;;;;;;;4.50;86.48;103290.88;10417685;28;19921;-69
2023/02/09 19:12:18;;;;;;;;;;;;;;;4.30;87.59;103302.81;10414967;28;20367;-69
2023/02/09 19:17:21;;;;;;;;;;;;;;;4.16;89.11;103300.97;10415012;28;19928;-69
2023/02/09 19:22:23;;;;;;;;;;;;;;;4.35;88.82;103302.00;10410433;28;20300;-69
2023/02/09 19:27:26;;;;;;;;;;;;;;;4.55;88.57;103315.13;10417197;28;19943;-68
2023/02/09 19:32:28;;;;;;;;;;;;;;;4.55;87.99;103315.13;10436478;28;19971;-69
2023/02/09 19:37:31;;;;;;;;;;;;;;;4.42;88.02;103327.16;10450653;28;20382;-69
2023/02/09 19:42:33;;;;;;;;;;;;;;;4.48;88.53;103334.13;10457603;28;19921;-69
2023/02/09 19:47:36;;;;;;;;;;;;;;;4.47;89.94;103341.03;10456914;28;20386;-68
2023/02/09 19:52:41;;;;;;;;;;;;;;;4.44;91.39;103347.94;10425092;28;19964;-69
2023/02/09 19:57:43;;;;;;;;;;;;;;;4.20;92.06;103354.63;10398609;28;19928;-68
2023/02/09 20:02:46;;;;;;;;;;;;;;;4.35;92.97;103355.59;10414914;28;20254;-69
2023/02/09 20:07:48;;;;;;;;;;;;;;;4.16;93.46;103364.94;10398569;28;19927;-69
2023/02/09 20:12:50;;;;;;;;;;;;;;;4.35;93.97;103365.97;10415670;28;19921;-68
2023/02/09 20:17:53;;;;;;;;;;;;;;;4.05;95.62;103363.09;10414761;28;19920;-68
2023/02/09 20:22:55;;;;;;;;;;;;;;;4.07;94.98;103376.09;10435178;28;20276;-69
2023/02/09 20:27:57;;;;;;;;;;;;;;;3.77;96.78;103367.09;10416325;28;19921;-68
2023/02/09 20:32:59;;;;;;;;;;;;;;;3.95;97.60;103373.34;10415885;28;19921;-69
2023/02/09 20:38:01;;;;;;;;;;;;;;;3.66;98.85;103374.72;10428786;28;20379;-68
2023/02/09 20:48:24;;;;;;;;;;;;;;;3.53;100.00;103391.84;10415701;28;19931;-68
2023/02/09 20:53:27;;;;;;;;;;;;;;;3.59;100.00;103383.25;10415168;28;19921;-68
2023/02/09 20:58:29;;;;;;;;;;;;;;;3.70;100.00;103394.66;10414444;28;20360;-68
2023/02/09 21:03:31;;;;;;;;;;;;;;;3.80;100.00;103392.16;10427443;28;19967;-68
2023/02/09 21:08:34;;;;;;;;;;;;;;;3.94;100.00;103397.53;10447230;28;19975;-68
2023/02/09 21:13:39;;;;;;;;;;;;;;;3.83;100.00;103397.38;10414960;28;19921;-68
2023/02/09 21:18:43;;;;;;;;;;;;;;;3.45;100.00;103400.34;10421330;28;19925;-69
2023/02/09 21:23:45;;;;;;;;;;;;;;;3.71;100.00;103395.50;10442294;28;19935;-68
2023/02/09 21:28:50;;;;;;;;;;;;;;;3.42;100.00;103403.75;10450344;28;19921;-68
2023/02/09 21:33:52;;;;;;;;;;;;;;;3.42;100.00;103406.34;10420316;28;19927;-68
2023/02/09 21:38:54;;;;;;;;;;;;;;;3.37;100.00;103412.31;10419408;28;20266;-68
2023/02/09 21:43:56;;;;;;;;;;;;;;;3.24;100.00;103414.69;10419950;28;20434;-68
2023/02/09 21:48:59;;;;;;;;;;;;;;;3.26;100.00;103427.69;10420495;28;19921;-68
2023/02/09 21:54:01;;;;;;;;;;;;;;;3.27;100.00;103427.69;10439528;28;19921;-68
2023/02/09 21:59:03;;;;;;;;;;;;;;;3.26;100.00;103425.09;10461587;28;19925;-68
2023/02/09 22:04:05;;;;;;;;;;;;;;;3.30;100.00;103432.94;10461444;28;19925;-68
2023/02/09 22:09:08;;;;;;;;;;;;;;;3.30;100.00;103425.16;10437581;28;20284;-68
2023/02/09 22:14:10;;;;;;;;;;;;;;;3.21;100.00;103419.88;10418773;28;19921;-69
2023/02/09 22:19:12;;;;;;;;;;;;;;;3.24;100.00;103422.47;10446624;28;19924;-68
2023/02/09 22:24:15;;;;;;;;;;;;;;;2.99;100.00;103405.69;10459977;28;19921;-69
2023/02/09 22:29:17;;;;;;;;;;;;;;;3.02;100.00;103405.75;10459028;28;19944;-69
2023/02/09 22:34:20;;;;;;;;;;;;;;;2.99;100.00;103410.84;10442763;28;19928;-69
2023/02/09 22:39:22;;;;;;;;;;;;;;;2.93;100.00;103416.81;10459085;28;19921;-69
2023/02/09 22:44:26;;;;;;;;;;;;;;;2.88;100.00;103415.88;10456038;28;20347;-69
2023/02/09 22:49:28;;;;;;;;;;;;;;;2.83;100.00;103424.41;10448649;28;19921;-68
2023/02/09 22:54:31;;;;;;;;;;;;;;;2.70;100.00;103439.69;10460090;28;19974;-68
2023/02/09 22:59:35;;;;;;;;;;;;;;;2.70;100.00;103451.78;10425930;28;20024;-69
2023/02/09 23:04:37;;;;;;;;;;;;;;;2.45;100.00;103453.03;10417973;28;19975;-68
2023/02/09 23:09:39;;;;;;;;;;;;;;;2.58;100.00;103462.78;10449730;28;19924;-69
2023/02/09 23:14:41;;;;;;;;;;;;;;;2.64;100.00;103449.97;10417739;28;19921;-69
2023/02/09 23:19:43;;;;;;;;;;;;;;;2.56;100.00;103459.28;10416784;28;20331;-69
2023/02/09 23:24:46;;;;;;;;;;;;;;;2.49;100.00;103447.97;10417179;28;19929;-69
2023/02/09 23:29:48;;;;;;;;;;;;;;;2.54;100.00;103453.19;10434725;28;19947;-69
2023/02/09 23:34:50;;;;;;;;;;;;;;;2.52;100.00;103465.22;10458103;28;19971;-69
2023/02/09 23:39:52;;;;;;;;;;;;;;;2.38;100.00;103459.81;10456750;28;19925;-69
2023/02/09 23:44:54;;;;;;;;;;;;;;;2.45;100.00;103465.97;10457201;28;19924;-69
2023/02/09 23:49:57;;;;;;;;;;;;;;;2.43;100.00;103471.09;10438964;28;19921;-70
2023/02/09 23:54:59;;;;;;;;;;;;;;;2.39;100.00;103483.09;10438304;28;20325;-69
